sensor_id;sensor_type;location;lat;lon;timestamp;temperature;humidity
49731;DHT22;35622;52.008;5.426;2023-07-20T00:01:31;20.60;77.80
49731;DHT22;35622;52.008;5.426;2023-07-20T00:03:57;20.60;77.80
49731;DHT22;35622;52.008;5.426;2023-07-20T00:06:23;20.50;78.00
49731;DHT22;35622;52.008;5.426;2023-07-20T00:08:50;20.60;78.00
49731;DHT22;35622;52.008;5.426;2023-07-20T00:11:16;20.60;78.10
49731;DHT22;35622;52.008;5.426;2023-07-20T00:13:41;20.50;78.00
49731;DHT22;35622;52.008;5.426;2023-07-20T00:16:07;20.40;78.10
49731;DHT22;35622;52.008;5.426;2023-07-20T00:18:32;20.50;78.70
49731;DHT22;35622;52.008;5.426;2023-07-20T00:20:58;20.50;78.80
49731;DHT22;35622;52.008;5.426;2023-07-20T00:23:25;20.50;78.80
49731;DHT22;35622;52.008;5.426;2023-07-20T00:25:51;20.50;78.60
49731;DHT22;35622;52.008;5.426;2023-07-20T00:28:17;20.60;78.30
49731;DHT22;35622;52.008;5.426;2023-07-20T00:30:42;20.60;78.10
49731;DHT22;35622;52.008;5.426;2023-07-20T00:33:10;20.60;77.90
49731;DHT22;35622;52.008;5.426;2023-07-20T00:35:37;20.50;77.80
49731;DHT22;35622;52.008;5.426;2023-07-20T00:38:03;20.40;77.00
49731;DHT22;35622;52.008;5.426;2023-07-20T00:40:34;20.40;77.20
49731;DHT22;35622;52.008;5.426;2023-07-20T00:43:00;20.40;77.20
49731;DHT22;35622;52.008;5.426;2023-07-20T00:45:26;20.30;77.50
49731;DHT22;35622;52.008;5.426;2023-07-20T00:47:52;20.20;77.70
49731;DHT22;35622;52.008;5.426;2023-07-20T00:50:17;20.20;77.70
49731;DHT22;35622;52.008;5.426;2023-07-20T00:52:43;20.20;77.60
49731;DHT22;35622;52.008;5.426;2023-07-20T00:55:09;20.10;77.10
49731;DHT22;35622;52.008;5.426;2023-07-20T00:57:35;20.10;77.40
49731;DHT22;35622;52.008;5.426;2023-07-20T01:00:01;20.10;77.20
49731;DHT22;35622;52.008;5.426;2023-07-20T01:02:27;20.10;77.00
49731;DHT22;35622;52.008;5.426;2023-07-20T01:04:52;20.00;77.00
49731;DHT22;35622;52.008;5.426;2023-07-20T01:07:30;19.90;76.70
49731;DHT22;35622;52.008;5.426;2023-07-20T01:12:33;19.80;76.50
49731;DHT22;35622;52.008;5.426;2023-07-20T01:15:01;19.70;77.30
49731;DHT22;35622;52.008;5.426;2023-07-20T01:17:27;19.70;77.60
49731;DHT22;35622;52.008;5.426;2023-07-20T01:19:52;19.60;77.40
49731;DHT22;35622;52.008;5.426;2023-07-20T01:34:02;19.30;77.20
49731;DHT22;35622;52.008;5.426;2023-07-20T01:36:33;19.30;77.00
49731;DHT22;35622;52.008;5.426;2023-07-20T01:38:59;19.20;77.20
49731;DHT22;35622;52.008;5.426;2023-07-20T01:41:25;19.20;77.30
49731;DHT22;35622;52.008;5.426;2023-07-20T01:43:51;19.20;77.20
49731;DHT22;35622;52.008;5.426;2023-07-20T01:46:16;19.10;77.00
49731;DHT22;35622;52.008;5.426;2023-07-20T01:48:42;19.00;77.40
49731;DHT22;35622;52.008;5.426;2023-07-20T01:51:08;18.90;77.40
49731;DHT22;35622;52.008;5.426;2023-07-20T01:53:33;18.90;78.10
49731;DHT22;35622;52.008;5.426;2023-07-20T01:55:59;18.90;77.10
49731;DHT22;35622;52.008;5.426;2023-07-20T01:58:25;18.80;77.20
49731;DHT22;35622;52.008;5.426;2023-07-20T02:00:50;18.80;77.20
49731;DHT22;35622;52.008;5.426;2023-07-20T02:03:16;18.80;77.00
49731;DHT22;35622;52.008;5.426;2023-07-20T02:05:45;18.80;76.90
49731;DHT22;35622;52.008;5.426;2023-07-20T02:08:10;18.70;76.60
49731;DHT22;35622;52.008;5.426;2023-07-20T02:10:36;18.60;76.60
49731;DHT22;35622;52.008;5.426;2023-07-20T02:13:02;18.60;77.00
49731;DHT22;35622;52.008;5.426;2023-07-20T02:15:27;18.50;77.10
49731;DHT22;35622;52.008;5.426;2023-07-20T02:17:54;18.50;77.00
49731;DHT22;35622;52.008;5.426;2023-07-20T02:20:19;18.40;76.90
49731;DHT22;35622;52.008;5.426;2023-07-20T02:22:45;18.40;76.70
49731;DHT22;35622;52.008;5.426;2023-07-20T02:25:11;18.30;76.90
49731;DHT22;35622;52.008;5.426;2023-07-20T02:27:37;18.30;77.20
49731;DHT22;35622;52.008;5.426;2023-07-20T02:30:04;18.20;77.30
49731;DHT22;35622;52.008;5.426;2023-07-20T02:32:31;18.10;77.30
49731;DHT22;35622;52.008;5.426;2023-07-20T02:34:57;18.10;77.20
49731;DHT22;35622;52.008;5.426;2023-07-20T02:37:23;18.10;77.30
49731;DHT22;35622;52.008;5.426;2023-07-20T02:39:50;18.10;77.50
49731;DHT22;35622;52.008;5.426;2023-07-20T02:42:15;18.10;77.50
49731;DHT22;35622;52.008;5.426;2023-07-20T02:44:41;18.10;77.80
49731;DHT22;35622;52.008;5.426;2023-07-20T02:47:06;18.10;78.30
49731;DHT22;35622;52.008;5.426;2023-07-20T02:49:32;18.10;78.60
49731;DHT22;35622;52.008;5.426;2023-07-20T02:51:58;18.10;78.40
49731;DHT22;35622;52.008;5.426;2023-07-20T02:54:23;18.00;78.50
49731;DHT22;35622;52.008;5.426;2023-07-20T02:56:49;18.10;78.50
49731;DHT22;35622;52.008;5.426;2023-07-20T02:59:15;18.00;78.00
49731;DHT22;35622;52.008;5.426;2023-07-20T03:01:40;18.00;77.90
49731;DHT22;35622;52.008;5.426;2023-07-20T03:04:08;18.00;77.90
49731;DHT22;35622;52.008;5.426;2023-07-20T03:06:35;18.00;78.20
49731;DHT22;35622;52.008;5.426;2023-07-20T03:09:01;17.90;78.30
49731;DHT22;35622;52.008;5.426;2023-07-20T03:11:27;17.90;78.30
49731;DHT22;35622;52.008;5.426;2023-07-20T03:13:52;17.90;77.70
49731;DHT22;35622;52.008;5.426;2023-07-20T03:16:19;17.90;77.50
49731;DHT22;35622;52.008;5.426;2023-07-20T03:18:45;17.80;77.60
49731;DHT22;35622;52.008;5.426;2023-07-20T03:21:11;17.80;78.90
49731;DHT22;35622;52.008;5.426;2023-07-20T03:23:38;17.80;79.10
49731;DHT22;35622;52.008;5.426;2023-07-20T03:26:03;17.70;78.00
49731;DHT22;35622;52.008;5.426;2023-07-20T03:28:29;17.70;77.80
49731;DHT22;35622;52.008;5.426;2023-07-20T03:30:56;17.70;77.60
49731;DHT22;35622;52.008;5.426;2023-07-20T03:33:24;17.70;77.60
49731;DHT22;35622;52.008;5.426;2023-07-20T03:35:50;17.60;77.70
49731;DHT22;35622;52.008;5.426;2023-07-20T03:38:15;17.60;79.30
49731;DHT22;35622;52.008;5.426;2023-07-20T03:40:52;17.60;78.70
49731;DHT22;35622;52.008;5.426;2023-07-20T03:43:18;17.60;78.80
49731;DHT22;35622;52.008;5.426;2023-07-20T03:45:44;17.70;78.90
49731;DHT22;35622;52.008;5.426;2023-07-20T03:48:11;17.70;79.00
49731;DHT22;35622;52.008;5.426;2023-07-20T03:50:37;17.70;78.90
49731;DHT22;35622;52.008;5.426;2023-07-20T03:53:02;17.70;78.80
49731;DHT22;35622;52.008;5.426;2023-07-20T03:55:28;17.60;79.00
49731;DHT22;35622;52.008;5.426;2023-07-20T03:57:53;17.70;79.00
49731;DHT22;35622;52.008;5.426;2023-07-20T04:00:19;17.80;78.60
49731;DHT22;35622;52.008;5.426;2023-07-20T04:02:45;17.80;78.20
49731;DHT22;35622;52.008;5.426;2023-07-20T04:05:10;17.80;78.10
49731;DHT22;35622;52.008;5.426;2023-07-20T04:07:36;17.70;77.80
49731;DHT22;35622;52.008;5.426;2023-07-20T04:10:01;17.70;78.00
49731;DHT22;35622;52.008;5.426;2023-07-20T04:12:27;17.70;78.20
49731;DHT22;35622;52.008;5.426;2023-07-20T04:14:52;17.70;78.30
49731;DHT22;35622;52.008;5.426;2023-07-20T04:17:18;17.70;78.30
49731;DHT22;35622;52.008;5.426;2023-07-20T04:19:44;17.70;78.80
49731;DHT22;35622;52.008;5.426;2023-07-20T04:22:09;17.80;79.00
49731;DHT22;35622;52.008;5.426;2023-07-20T04:24:35;17.80;78.70
49731;DHT22;35622;52.008;5.426;2023-07-20T04:27:00;17.90;78.70
49731;DHT22;35622;52.008;5.426;2023-07-20T04:29:26;17.90;78.90
49731;DHT22;35622;52.008;5.426;2023-07-20T04:31:52;17.90;79.00
49731;DHT22;35622;52.008;5.426;2023-07-20T04:34:17;17.90;79.00
49731;DHT22;35622;52.008;5.426;2023-07-20T04:36:43;17.90;79.10
49731;DHT22;35622;52.008;5.426;2023-07-20T04:39:10;17.90;78.80
49731;DHT22;35622;52.008;5.426;2023-07-20T04:41:35;18.00;79.00
49731;DHT22;35622;52.008;5.426;2023-07-20T04:44:01;18.00;79.40
49731;DHT22;35622;52.008;5.426;2023-07-20T04:46:26;18.00;79.70
49731;DHT22;35622;52.008;5.426;2023-07-20T04:48:52;18.10;79.50
49731;DHT22;35622;52.008;5.426;2023-07-20T04:51:18;18.10;79.50
49731;DHT22;35622;52.008;5.426;2023-07-20T04:53:47;18.10;80.00
49731;DHT22;35622;52.008;5.426;2023-07-20T04:56:12;18.10;80.20
49731;DHT22;35622;52.008;5.426;2023-07-20T04:58:38;18.20;80.30
49731;DHT22;35622;52.008;5.426;2023-07-20T05:01:04;18.30;80.50
49731;DHT22;35622;52.008;5.426;2023-07-20T05:03:29;18.40;80.30
49731;DHT22;35622;52.008;5.426;2023-07-20T05:05:55;18.60;80.70
49731;DHT22;35622;52.008;5.426;2023-07-20T05:08:21;18.70;81.10
49731;DHT22;35622;52.008;5.426;2023-07-20T05:10:47;18.90;81.20
49731;DHT22;35622;52.008;5.426;2023-07-20T05:13:13;19.00;80.60
49731;DHT22;35622;52.008;5.426;2023-07-20T05:15:39;19.10;79.70
49731;DHT22;35622;52.008;5.426;2023-07-20T05:18:04;19.20;79.20
49731;DHT22;35622;52.008;5.426;2023-07-20T05:20:30;19.30;78.50
49731;DHT22;35622;52.008;5.426;2023-07-20T05:22:57;19.50;78.10
49731;DHT22;35622;52.008;5.426;2023-07-20T05:25:22;19.60;78.20
49731;DHT22;35622;52.008;5.426;2023-07-20T05:27:48;19.70;77.90
49731;DHT22;35622;52.008;5.426;2023-07-20T05:30:14;19.60;77.80
49731;DHT22;35622;52.008;5.426;2023-07-20T05:32:39;19.80;77.70
49731;DHT22;35622;52.008;5.426;2023-07-20T05:35:06;19.90;77.90
49731;DHT22;35622;52.008;5.426;2023-07-20T05:37:31;20.10;77.20
49731;DHT22;35622;52.008;5.426;2023-07-20T05:39:57;20.00;77.40
49731;DHT22;35622;52.008;5.426;2023-07-20T05:42:23;20.20;77.70
49731;DHT22;35622;52.008;5.426;2023-07-20T05:44:49;20.00;77.60
49731;DHT22;35622;52.008;5.426;2023-07-20T05:47:15;20.20;77.60
49731;DHT22;35622;52.008;5.426;2023-07-20T05:49:40;20.20;77.30
49731;DHT22;35622;52.008;5.426;2023-07-20T05:52:06;20.20;76.80
49731;DHT22;35622;52.008;5.426;2023-07-20T05:54:32;20.40;76.70
49731;DHT22;35622;52.008;5.426;2023-07-20T05:56:57;20.50;76.50
49731;DHT22;35622;52.008;5.426;2023-07-20T05:59:23;20.50;76.50
49731;DHT22;35622;52.008;5.426;2023-07-20T06:01:49;20.70;76.80
49731;DHT22;35622;52.008;5.426;2023-07-20T06:04:15;20.80;76.20
49731;DHT22;35622;52.008;5.426;2023-07-20T06:06:41;20.90;75.90
49731;DHT22;35622;52.008;5.426;2023-07-20T06:09:07;21.20;75.40
49731;DHT22;35622;52.008;5.426;2023-07-20T06:11:37;21.40;75.40
49731;DHT22;35622;52.008;5.426;2023-07-20T06:14:03;21.50;74.90
49731;DHT22;35622;52.008;5.426;2023-07-20T06:16:28;22.10;74.40
49731;DHT22;35622;52.008;5.426;2023-07-20T06:18:54;22.60;72.20
49731;DHT22;35622;52.008;5.426;2023-07-20T06:21:19;23.20;71.00
49731;DHT22;35622;52.008;5.426;2023-07-20T06:23:45;24.00;68.40
49731;DHT22;35622;52.008;5.426;2023-07-20T06:26:11;24.60;64.70
49731;DHT22;35622;52.008;5.426;2023-07-20T06:28:37;25.30;63.10
49731;DHT22;35622;52.008;5.426;2023-07-20T06:31:03;25.80;60.20
49731;DHT22;35622;52.008;5.426;2023-07-20T06:33:29;26.20;59.80
49731;DHT22;35622;52.008;5.426;2023-07-20T06:35:55;26.40;57.80
49731;DHT22;35622;52.008;5.426;2023-07-20T06:38:22;26.90;56.80
49731;DHT22;35622;52.008;5.426;2023-07-20T06:40:49;27.20;56.90
49731;DHT22;35622;52.008;5.426;2023-07-20T06:43:15;27.50;55.30
49731;DHT22;35622;52.008;5.426;2023-07-20T06:45:41;27.80;54.50
49731;DHT22;35622;52.008;5.426;2023-07-20T06:48:07;28.10;54.70
49731;DHT22;35622;52.008;5.426;2023-07-20T06:50:33;28.50;52.00
49731;DHT22;35622;52.008;5.426;2023-07-20T06:52:59;28.80;51.80
49731;DHT22;35622;52.008;5.426;2023-07-20T06:55:25;29.00;53.60
49731;DHT22;35622;52.008;5.426;2023-07-20T06:57:51;29.20;51.90
49731;DHT22;35622;52.008;5.426;2023-07-20T07:00:17;29.30;48.70
49731;DHT22;35622;52.008;5.426;2023-07-20T07:02:43;29.40;47.80
49731;DHT22;35622;52.008;5.426;2023-07-20T07:05:08;29.40;49.70
49731;DHT22;35622;52.008;5.426;2023-07-20T07:07:34;29.30;49.70
49731;DHT22;35622;52.008;5.426;2023-07-20T07:10:00;28.90;51.20
49731;DHT22;35622;52.008;5.426;2023-07-20T07:12:26;28.50;50.60
49731;DHT22;35622;52.008;5.426;2023-07-20T07:14:51;28.00;51.60
49731;DHT22;35622;52.008;5.426;2023-07-20T07:17:18;27.50;52.30
49731;DHT22;35622;52.008;5.426;2023-07-20T07:19:43;27.10;53.40
49731;DHT22;35622;52.008;5.426;2023-07-20T07:22:09;26.60;54.30
49731;DHT22;35622;52.008;5.426;2023-07-20T07:24:35;26.10;55.40
49731;DHT22;35622;52.008;5.426;2023-07-20T07:27:02;25.90;58.10
49731;DHT22;35622;52.008;5.426;2023-07-20T07:29:27;25.80;58.00
49731;DHT22;35622;52.008;5.426;2023-07-20T07:31:53;26.10;54.00
49731;DHT22;35622;52.008;5.426;2023-07-20T07:34:18;26.40;54.30
49731;DHT22;35622;52.008;5.426;2023-07-20T07:36:44;26.50;55.10
49731;DHT22;35622;52.008;5.426;2023-07-20T07:39:10;26.60;55.50
49731;DHT22;35622;52.008;5.426;2023-07-20T07:41:36;26.80;52.40
49731;DHT22;35622;52.008;5.426;2023-07-20T07:44:02;26.90;51.80
49731;DHT22;35622;52.008;5.426;2023-07-20T07:46:27;27.20;55.30
49731;DHT22;35622;52.008;5.426;2023-07-20T07:48:53;27.70;52.00
49731;DHT22;35622;52.008;5.426;2023-07-20T07:51:18;28.20;49.20
49731;DHT22;35622;52.008;5.426;2023-07-20T07:53:45;28.50;50.30
49731;DHT22;35622;52.008;5.426;2023-07-20T07:56:11;28.70;47.60
49731;DHT22;35622;52.008;5.426;2023-07-20T07:58:36;28.80;49.00
49731;DHT22;35622;52.008;5.426;2023-07-20T08:01:02;28.60;44.40
49731;DHT22;35622;52.008;5.426;2023-07-20T08:03:28;28.10;45.30
49731;DHT22;35622;52.008;5.426;2023-07-20T08:05:54;27.60;45.30
49731;DHT22;35622;52.008;5.426;2023-07-20T08:08:21;27.70;46.90
49731;DHT22;35622;52.008;5.426;2023-07-20T08:10:46;28.10;45.10
49731;DHT22;35622;52.008;5.426;2023-07-20T08:13:13;28.40;45.30
49731;DHT22;35622;52.008;5.426;2023-07-20T08:15:39;28.60;43.70
49731;DHT22;35622;52.008;5.426;2023-07-20T08:18:05;28.70;42.70
49731;DHT22;35622;52.008;5.426;2023-07-20T08:20:31;28.90;42.90
49731;DHT22;35622;52.008;5.426;2023-07-20T08:22:57;28.90;42.00
49731;DHT22;35622;52.008;5.426;2023-07-20T08:25:26;29.10;45.00
49731;DHT22;35622;52.008;5.426;2023-07-20T08:27:51;29.20;43.30
49731;DHT22;35622;52.008;5.426;2023-07-20T08:30:17;29.60;41.90
49731;DHT22;35622;52.008;5.426;2023-07-20T08:32:42;30.10;43.00
49731;DHT22;35622;52.008;5.426;2023-07-20T08:35:08;30.30;44.30
49731;DHT22;35622;52.008;5.426;2023-07-20T08:37:34;30.50;41.70
49731;DHT22;35622;52.008;5.426;2023-07-20T08:40:00;30.00;43.60
49731;DHT22;35622;52.008;5.426;2023-07-20T08:42:27;29.50;42.50
49731;DHT22;35622;52.008;5.426;2023-07-20T08:44:53;28.90;45.70
49731;DHT22;35622;52.008;5.426;2023-07-20T08:47:20;28.40;45.60
49731;DHT22;35622;52.008;5.426;2023-07-20T08:49:48;27.90;46.60
49731;DHT22;35622;52.008;5.426;2023-07-20T08:52:14;27.40;48.90
49731;DHT22;35622;52.008;5.426;2023-07-20T08:54:40;27.10;44.00
49731;DHT22;35622;52.008;5.426;2023-07-20T08:57:06;27.10;43.80
49731;DHT22;35622;52.008;5.426;2023-07-20T08:59:32;27.30;43.10
49731;DHT22;35622;52.008;5.426;2023-07-20T09:02:00;27.20;42.90
49731;DHT22;35622;52.008;5.426;2023-07-20T09:04:26;27.10;42.70
49731;DHT22;35622;52.008;5.426;2023-07-20T09:06:51;27.30;44.00
49731;DHT22;35622;52.008;5.426;2023-07-20T09:09:17;27.80;43.60
49731;DHT22;35622;52.008;5.426;2023-07-20T09:11:46;28.40;41.80
49731;DHT22;35622;52.008;5.426;2023-07-20T09:14:11;28.90;40.70
49731;DHT22;35622;52.008;5.426;2023-07-20T09:17:03;28.90;42.30
49731;DHT22;35622;52.008;5.426;2023-07-20T09:19:29;28.30;40.80
49731;DHT22;35622;52.008;5.426;2023-07-20T09:21:54;28.30;41.80
49731;DHT22;35622;52.008;5.426;2023-07-20T09:24:20;28.20;40.70
49731;DHT22;35622;52.008;5.426;2023-07-20T09:26:48;27.90;40.00
49731;DHT22;35622;52.008;5.426;2023-07-20T09:29:18;27.70;41.50
49731;DHT22;35622;52.008;5.426;2023-07-20T09:32:04;27.50;45.30
49731;DHT22;35622;52.008;5.426;2023-07-20T09:34:31;27.30;46.00
49731;DHT22;35622;52.008;5.426;2023-07-20T09:37:00;27.20;47.40
49731;DHT22;35622;52.008;5.426;2023-07-20T09:39:26;27.00;47.00
49731;DHT22;35622;52.008;5.426;2023-07-20T09:41:51;27.00;42.20
49731;DHT22;35622;52.008;5.426;2023-07-20T09:44:17;27.30;44.00
49731;DHT22;35622;52.008;5.426;2023-07-20T09:46:47;27.60;39.20
49731;DHT22;35622;52.008;5.426;2023-07-20T09:49:14;28.00;41.00
49731;DHT22;35622;52.008;5.426;2023-07-20T09:51:43;28.50;40.30
49731;DHT22;35622;52.008;5.426;2023-07-20T09:54:10;28.70;39.50
49731;DHT22;35622;52.008;5.426;2023-07-20T09:56:38;28.80;36.20
49731;DHT22;35622;52.008;5.426;2023-07-20T09:59:04;28.80;36.20
49731;DHT22;35622;52.008;5.426;2023-07-20T10:01:30;28.70;37.70
49731;DHT22;35622;52.008;5.426;2023-07-20T10:03:58;28.90;37.50
49731;DHT22;35622;52.008;5.426;2023-07-20T10:06:27;29.10;35.80
49731;DHT22;35622;52.008;5.426;2023-07-20T10:08:56;29.20;33.70
49731;DHT22;35622;52.008;5.426;2023-07-20T10:11:26;29.40;38.30
49731;DHT22;35622;52.008;5.426;2023-07-20T10:13:56;29.90;36.30
49731;DHT22;35622;52.008;5.426;2023-07-20T10:16:51;29.50;36.60
49731;DHT22;35622;52.008;5.426;2023-07-20T10:19:23;29.30;37.20
49731;DHT22;35622;52.008;5.426;2023-07-20T10:22:00;29.10;42.00
49731;DHT22;35622;52.008;5.426;2023-07-20T10:24:27;28.40;33.20
49731;DHT22;35622;52.008;5.426;2023-07-20T10:26:55;27.70;39.60
49731;DHT22;35622;52.008;5.426;2023-07-20T10:29:21;28.40;40.80
49731;DHT22;35622;52.008;5.426;2023-07-20T10:31:48;29.10;37.80
49731;DHT22;35622;52.008;5.426;2023-07-20T10:34:14;29.00;31.10
49731;DHT22;35622;52.008;5.426;2023-07-20T10:36:45;29.20;35.60
49731;DHT22;35622;52.008;5.426;2023-07-20T10:39:28;29.00;37.70
49731;DHT22;35622;52.008;5.426;2023-07-20T10:42:10;28.60;37.10
49731;DHT22;35622;52.008;5.426;2023-07-20T10:44:39;28.20;38.60
49731;DHT22;35622;52.008;5.426;2023-07-20T10:47:09;28.80;38.30
49731;DHT22;35622;52.008;5.426;2023-07-20T10:49:58;28.80;39.00
49731;DHT22;35622;52.008;5.426;2023-07-20T10:52:25;28.20;36.40
49731;DHT22;35622;52.008;5.426;2023-07-20T10:54:51;28.90;35.10
49731;DHT22;35622;52.008;5.426;2023-07-20T10:57:37;29.30;35.80
49731;DHT22;35622;52.008;5.426;2023-07-20T11:00:10;28.80;37.70
49731;DHT22;35622;52.008;5.426;2023-07-20T11:02:44;28.10;38.00
49731;DHT22;35622;52.008;5.426;2023-07-20T11:05:33;28.30;38.80
49731;DHT22;35622;52.008;5.426;2023-07-20T11:08:00;28.30;37.90
49731;DHT22;35622;52.008;5.426;2023-07-20T11:10:27;29.00;36.90
49731;DHT22;35622;52.008;5.426;2023-07-20T11:13:15;29.20;36.40
49731;DHT22;35622;52.008;5.426;2023-07-20T11:16:05;28.80;35.20
49731;DHT22;35622;52.008;5.426;2023-07-20T11:18:33;28.60;36.50
49731;DHT22;35622;52.008;5.426;2023-07-20T11:20:59;29.00;36.30
49731;DHT22;35622;52.008;5.426;2023-07-20T11:23:25;28.40;37.40
49731;DHT22;35622;52.008;5.426;2023-07-20T11:25:51;28.00;38.80
49731;DHT22;35622;52.008;5.426;2023-07-20T11:28:16;28.20;39.90
49731;DHT22;35622;52.008;5.426;2023-07-20T11:30:42;28.80;38.80
49731;DHT22;35622;52.008;5.426;2023-07-20T11:33:11;29.40;38.30
49731;DHT22;35622;52.008;5.426;2023-07-20T11:35:45;28.80;37.50
49731;DHT22;35622;52.008;5.426;2023-07-20T11:38:16;28.70;39.70
49731;DHT22;35622;52.008;5.426;2023-07-20T11:40:45;28.70;37.60
49731;DHT22;35622;52.008;5.426;2023-07-20T11:43:13;28.60;35.80
49731;DHT22;35622;52.008;5.426;2023-07-20T11:45:39;28.90;37.10
49731;DHT22;35622;52.008;5.426;2023-07-20T11:48:05;28.40;36.70
49731;DHT22;35622;52.008;5.426;2023-07-20T11:50:31;28.40;40.80
49731;DHT22;35622;52.008;5.426;2023-07-20T11:52:57;28.00;38.80
49731;DHT22;35622;52.008;5.426;2023-07-20T11:55:23;27.80;38.20
49731;DHT22;35622;52.008;5.426;2023-07-20T11:58:04;28.10;41.60
49731;DHT22;35622;52.008;5.426;2023-07-20T12:00:32;27.30;37.70
49731;DHT22;35622;52.008;5.426;2023-07-20T12:02:58;27.30;39.60
49731;DHT22;35622;52.008;5.426;2023-07-20T12:05:23;27.60;39.80
49731;DHT22;35622;52.008;5.426;2023-07-20T12:07:50;27.80;38.20
49731;DHT22;35622;52.008;5.426;2023-07-20T12:10:26;27.80;39.20
49731;DHT22;35622;52.008;5.426;2023-07-20T12:12:52;28.60;38.20
49731;DHT22;35622;52.008;5.426;2023-07-20T12:15:23;28.90;38.70
49731;DHT22;35622;52.008;5.426;2023-07-20T12:17:51;29.20;36.00
49731;DHT22;35622;52.008;5.426;2023-07-20T12:20:30;28.80;38.20
49731;DHT22;35622;52.008;5.426;2023-07-20T12:22:59;28.30;37.70
49731;DHT22;35622;52.008;5.426;2023-07-20T12:25:53;28.80;39.40
49731;DHT22;35622;52.008;5.426;2023-07-20T12:28:19;29.20;36.80
49731;DHT22;35622;52.008;5.426;2023-07-20T12:30:46;29.60;34.80
49731;DHT22;35622;52.008;5.426;2023-07-20T12:33:13;29.70;34.50
49731;DHT22;35622;52.008;5.426;2023-07-20T12:35:41;30.00;34.70
49731;DHT22;35622;52.008;5.426;2023-07-20T12:38:06;29.70;34.70
49731;DHT22;35622;52.008;5.426;2023-07-20T12:40:32;28.50;34.40
49731;DHT22;35622;52.008;5.426;2023-07-20T12:42:57;28.90;36.00
49731;DHT22;35622;52.008;5.426;2023-07-20T12:45:23;28.20;35.70
49731;DHT22;35622;52.008;5.426;2023-07-20T12:47:49;28.50;37.80
49731;DHT22;35622;52.008;5.426;2023-07-20T12:50:14;28.50;38.60
49731;DHT22;35622;52.008;5.426;2023-07-20T12:52:40;28.70;38.60
49731;DHT22;35622;52.008;5.426;2023-07-20T12:55:07;29.00;37.70
49731;DHT22;35622;52.008;5.426;2023-07-20T12:57:34;29.10;38.60
49731;DHT22;35622;52.008;5.426;2023-07-20T13:00:04;28.90;36.00
49731;DHT22;35622;52.008;5.426;2023-07-20T13:02:31;28.50;37.50
49731;DHT22;35622;52.008;5.426;2023-07-20T13:04:57;28.20;38.10
49731;DHT22;35622;52.008;5.426;2023-07-20T13:07:49;28.30;37.50
49731;DHT22;35622;52.008;5.426;2023-07-20T13:10:15;28.30;38.10
49731;DHT22;35622;52.008;5.426;2023-07-20T13:12:40;28.30;39.10
49731;DHT22;35622;52.008;5.426;2023-07-20T13:15:08;27.80;39.40
49731;DHT22;35622;52.008;5.426;2023-07-20T13:17:34;28.00;37.60
49731;DHT22;35622;52.008;5.426;2023-07-20T13:20:01;27.60;37.10
49731;DHT22;35622;52.008;5.426;2023-07-20T13:22:27;27.60;39.70
49731;DHT22;35622;52.008;5.426;2023-07-20T13:24:53;27.60;39.70
49731;DHT22;35622;52.008;5.426;2023-07-20T13:27:19;27.70;40.00
49731;DHT22;35622;52.008;5.426;2023-07-20T13:29:45;27.00;40.50
49731;DHT22;35622;52.008;5.426;2023-07-20T13:32:13;27.00;42.00
49731;DHT22;35622;52.008;5.426;2023-07-20T13:34:40;26.60;40.10
49731;DHT22;35622;52.008;5.426;2023-07-20T13:37:06;26.40;41.30
49731;DHT22;35622;52.008;5.426;2023-07-20T13:39:32;26.70;40.60
49731;DHT22;35622;52.008;5.426;2023-07-20T13:41:57;26.70;42.10
49731;DHT22;35622;52.008;5.426;2023-07-20T13:44:23;26.70;41.20
49731;DHT22;35622;52.008;5.426;2023-07-20T13:46:49;26.80;40.90
49731;DHT22;35622;52.008;5.426;2023-07-20T13:49:15;26.50;41.60
49731;DHT22;35622;52.008;5.426;2023-07-20T13:51:43;26.40;41.80
49731;DHT22;35622;52.008;5.426;2023-07-20T13:54:09;26.90;42.60
49731;DHT22;35622;52.008;5.426;2023-07-20T13:56:35;26.30;43.20
49731;DHT22;35622;52.008;5.426;2023-07-20T13:59:01;26.70;44.50
49731;DHT22;35622;52.008;5.426;2023-07-20T14:01:26;26.70;40.50
49731;DHT22;35622;52.008;5.426;2023-07-20T14:03:54;27.00;44.70
49731;DHT22;35622;52.008;5.426;2023-07-20T14:06:19;27.20;41.10
49731;DHT22;35622;52.008;5.426;2023-07-20T14:08:45;26.80;40.70
49731;DHT22;35622;52.008;5.426;2023-07-20T14:11:12;26.10;40.90
49731;DHT22;35622;52.008;5.426;2023-07-20T14:13:38;26.60;41.60
49731;DHT22;35622;52.008;5.426;2023-07-20T14:16:04;27.00;42.60
49731;DHT22;35622;52.008;5.426;2023-07-20T14:18:29;26.90;42.30
49731;DHT22;35622;52.008;5.426;2023-07-20T14:20:55;27.10;41.60
49731;DHT22;35622;52.008;5.426;2023-07-20T14:23:21;27.20;41.90
49731;DHT22;35622;52.008;5.426;2023-07-20T14:25:46;27.30;41.00
49731;DHT22;35622;52.008;5.426;2023-07-20T14:28:12;27.20;41.60
49731;DHT22;35622;52.008;5.426;2023-07-20T14:30:38;27.10;38.50
49731;DHT22;35622;52.008;5.426;2023-07-20T14:33:03;26.70;41.20
49731;DHT22;35622;52.008;5.426;2023-07-20T14:35:29;27.00;39.60
49731;DHT22;35622;52.008;5.426;2023-07-20T14:37:55;27.40;41.40
49731;DHT22;35622;52.008;5.426;2023-07-20T14:40:20;27.10;38.40
49731;DHT22;35622;52.008;5.426;2023-07-20T14:42:46;27.30;41.30
49731;DHT22;35622;52.008;5.426;2023-07-20T14:45:12;26.90;39.00
49731;DHT22;35622;52.008;5.426;2023-07-20T14:47:37;27.00;41.20
49731;DHT22;35622;52.008;5.426;2023-07-20T14:50:03;27.40;39.60
49731;DHT22;35622;52.008;5.426;2023-07-20T14:52:29;27.80;40.60
49731;DHT22;35622;52.008;5.426;2023-07-20T14:54:55;27.30;39.00
49731;DHT22;35622;52.008;5.426;2023-07-20T14:57:21;27.00;39.20
49731;DHT22;35622;52.008;5.426;2023-07-20T14:59:49;27.10;40.50
49731;DHT22;35622;52.008;5.426;2023-07-20T15:02:14;27.10;40.30
49731;DHT22;35622;52.008;5.426;2023-07-20T15:04:47;27.60;38.20
49731;DHT22;35622;52.008;5.426;2023-07-20T15:07:13;27.80;40.10
49731;DHT22;35622;52.008;5.426;2023-07-20T15:09:38;28.10;39.40
49731;DHT22;35622;52.008;5.426;2023-07-20T15:12:05;28.10;38.20
49731;DHT22;35622;52.008;5.426;2023-07-20T15:14:30;28.20;39.60
49731;DHT22;35622;52.008;5.426;2023-07-20T15:16:56;28.50;37.70
49731;DHT22;35622;52.008;5.426;2023-07-20T15:19:22;28.50;38.20
49731;DHT22;35622;52.008;5.426;2023-07-20T15:21:47;28.40;35.90
49731;DHT22;35622;52.008;5.426;2023-07-20T15:24:13;28.60;36.60
49731;DHT22;35622;52.008;5.426;2023-07-20T15:26:39;28.40;37.30
49731;DHT22;35622;52.008;5.426;2023-07-20T15:29:06;28.50;37.80
49731;DHT22;35622;52.008;5.426;2023-07-20T15:31:32;28.80;34.60
49731;DHT22;35622;52.008;5.426;2023-07-20T15:33:58;28.70;34.90
49731;DHT22;35622;52.008;5.426;2023-07-20T15:36:24;28.80;34.00
49731;DHT22;35622;52.008;5.426;2023-07-20T15:38:49;28.80;35.50
49731;DHT22;35622;52.008;5.426;2023-07-20T15:41:15;28.90;37.10
49731;DHT22;35622;52.008;5.426;2023-07-20T15:43:41;28.00;38.10